createdAt,value
2023-05-09T00:00:14.863Z,89.52
2023-05-09T00:03:06.156Z,89.06
2023-05-09T00:05:55.459Z,89.21
2023-05-09T00:08:44.742Z,89.28
2023-05-09T00:11:34.226Z,88.96
2023-05-09T00:14:24.927Z,89.25
2023-05-09T00:17:15.840Z,89.14
2023-05-09T00:20:09.012Z,89.23
2023-05-09T00:22:58.229Z,89.12
2023-05-09T00:25:47.568Z,88.90
2023-05-09T00:28:37.044Z,89.14
2023-05-09T00:31:26.351Z,88.84
2023-05-09T00:34:16.977Z,89.17
2023-05-09T00:37:06.481Z,89.33
2023-05-09T00:39:55.704Z,89.02
2023-05-09T00:42:45.205Z,89.05
2023-05-09T00:45:34.555Z,89.48
2023-05-09T00:48:23.980Z,89.11
2023-05-09T00:51:15.010Z,89.21
2023-05-09T00:54:06.459Z,89.32
2023-05-09T00:56:57.040Z,89.18
2023-05-09T00:59:46.426Z,89.02
2023-05-09T01:02:35.856Z,88.82
2023-05-09T01:05:38.839Z,88.59
2023-05-09T01:08:45.492Z,88.83
2023-05-09T01:11:43.049Z,88.63
2023-05-09T01:14:45.916Z,88.48
2023-05-09T01:17:45.263Z,88.73
2023-05-09T01:20:40.697Z,88.64
2023-05-09T01:24:00.734Z,88.92
2023-05-09T01:27:13.135Z,88.75
2023-05-09T01:30:07.155Z,88.75
2023-05-09T01:33:02.415Z,88.73
2023-05-09T01:35:59.388Z,88.57
2023-05-09T01:38:53.177Z,88.24
2023-05-09T01:41:42.735Z,88.10
2023-05-09T01:44:37.692Z,88.28
2023-05-09T01:47:29.719Z,88.23
2023-05-09T01:50:21.143Z,88.06
2023-05-09T01:53:14.411Z,88.28
2023-05-09T01:56:05.971Z,87.80
2023-05-09T01:58:57.011Z,88.17
2023-05-09T02:01:48.343Z,88.01
2023-05-09T02:04:40.125Z,87.71
2023-05-09T02:07:31.317Z,87.64
2023-05-09T02:10:21.993Z,87.31
2023-05-09T02:13:11.759Z,87.33
2023-05-09T02:16:02.142Z,87.15
2023-05-09T02:18:52.836Z,87.40
2023-05-09T02:21:43.626Z,87.44
2023-05-09T02:24:35.209Z,87.13
2023-05-09T02:27:24.911Z,87.56
2023-05-09T02:30:20.707Z,87.06
2023-05-09T02:33:13.794Z,87.22
2023-05-09T02:36:06.057Z,87.05
2023-05-09T02:38:57.294Z,87.29
2023-05-09T02:41:50.626Z,86.85
2023-05-09T02:44:41.054Z,87.04
2023-05-09T02:47:30.325Z,86.61
2023-05-09T02:50:21.186Z,86.54
2023-05-09T02:53:10.923Z,86.40
2023-05-09T02:56:04.107Z,86.38
2023-05-09T02:58:53.668Z,86.77
2023-05-09T03:01:43.016Z,86.58
2023-05-09T03:04:33.528Z,86.63
2023-05-09T03:07:23.226Z,86.72
2023-05-09T03:10:12.871Z,86.54
2023-05-09T03:13:04.081Z,86.33
2023-05-09T03:15:53.483Z,86.55
2023-05-09T03:18:43.479Z,86.41
2023-05-09T03:21:33.146Z,86.43
2023-05-09T03:24:23.272Z,86.48
2023-05-09T03:27:12.996Z,86.27
2023-05-09T03:30:03.697Z,86.28
2023-05-09T03:32:53.323Z,86.23
2023-05-09T03:35:42.720Z,86.21
2023-05-09T03:38:32.295Z,86.47
2023-05-09T03:41:22.183Z,85.99
2023-05-09T03:44:11.734Z,85.90
2023-05-09T03:47:02.582Z,86.10
2023-05-09T03:49:58.377Z,86.24
2023-05-09T03:52:48.152Z,85.83
2023-05-09T03:55:39.962Z,86.07
2023-05-09T03:58:31.546Z,85.99
2023-05-09T04:01:22.177Z,85.96
2023-05-09T04:04:13.009Z,85.88
2023-05-09T04:07:02.502Z,86.31
2023-05-09T04:09:52.493Z,85.92
2023-05-09T04:12:42.391Z,86.09
2023-05-09T04:15:32.366Z,86.40
2023-05-09T04:18:22.719Z,86.45
2023-05-09T04:21:13.376Z,86.66
2023-05-09T04:24:03.696Z,86.76
2023-05-09T04:26:59.304Z,86.96
2023-05-09T04:29:49.448Z,87.47
2023-05-09T04:32:39.805Z,87.09
2023-05-09T04:35:29.751Z,86.87
2023-05-09T04:38:21.444Z,87.18
2023-05-09T04:41:11.792Z,87.08
2023-05-09T04:44:02.163Z,86.86
2023-05-09T04:46:52.276Z,86.94
2023-05-09T04:49:42.045Z,87.28
2023-05-09T04:52:31.438Z,87.45
2023-05-09T04:55:22.237Z,87.46
2023-05-09T04:58:12.783Z,87.54
2023-05-09T05:01:02.200Z,87.20
2023-05-09T05:03:51.481Z,87.23
2023-05-09T05:06:40.798Z,87.38
2023-05-09T05:09:30.725Z,87.43
2023-05-09T05:12:21.939Z,87.14
2023-05-09T05:15:13.863Z,87.84
2023-05-09T05:18:06.355Z,87.17
2023-05-09T05:20:57.883Z,87.17
2023-05-09T05:23:48.454Z,86.64
2023-05-09T05:26:38.787Z,86.41
2023-05-09T05:29:29.606Z,86.46
2023-05-09T05:32:19.003Z,86.59
2023-05-09T05:35:10.748Z,85.95
2023-05-09T05:38:00.451Z,85.98
2023-05-09T05:40:50.900Z,85.93
2023-05-09T05:43:40.282Z,86.13
2023-05-09T05:46:31.622Z,85.60
2023-05-09T05:49:21.250Z,85.39
2023-05-09T05:52:10.787Z,86.22
2023-05-09T05:55:00.391Z,85.89
2023-05-09T05:57:49.871Z,86.21
2023-05-09T06:00:39.280Z,86.15
2023-05-09T06:03:32.316Z,86.14
2023-05-09T06:06:25.924Z,86.24
2023-05-09T06:09:16.830Z,86.39
2023-05-09T06:12:07.410Z,86.67
2023-05-09T06:14:56.790Z,85.49
2023-05-09T06:17:46.217Z,85.57
2023-05-09T06:20:37.080Z,85.90
2023-05-09T06:23:26.455Z,85.64
2023-05-09T06:26:15.698Z,85.78
2023-05-09T06:29:07.809Z,85.59
2023-05-09T06:31:57.286Z,85.84
2023-05-09T06:34:46.702Z,85.31
2023-05-09T06:37:37.447Z,85.11
2023-05-09T06:40:26.925Z,84.59
2023-05-09T06:43:16.524Z,84.60
2023-05-09T06:46:05.972Z,84.79
2023-05-09T06:48:55.259Z,84.19
2023-05-09T06:51:44.718Z,84.09
2023-05-09T06:54:35.422Z,84.35
2023-05-09T06:57:25.034Z,83.53
2023-05-09T07:00:16.550Z,82.52
2023-05-09T07:03:07.798Z,82.06
2023-05-09T07:05:59.103Z,81.54
2023-05-09T07:08:48.646Z,82.15
2023-05-09T07:11:39.591Z,81.58
2023-05-09T07:14:28.990Z,79.85
2023-05-09T07:17:23.536Z,79.56
2023-05-09T07:20:13.668Z,79.63
2023-05-09T07:23:04.272Z,79.37
2023-05-09T07:25:58.994Z,78.43
2023-05-09T07:28:49.689Z,77.89
2023-05-09T07:31:38.951Z,77.29
2023-05-09T07:34:28.771Z,76.38
2023-05-09T07:37:18.081Z,77.08
2023-05-09T07:40:09.225Z,77.31
2023-05-09T07:42:58.803Z,76.51
2023-05-09T07:45:49.583Z,75.73
2023-05-09T07:48:38.913Z,73.96
2023-05-09T07:51:28.130Z,74.24
2023-05-09T07:54:17.519Z,73.18
2023-05-09T07:57:06.840Z,72.47
2023-05-09T07:59:56.348Z,72.06
2023-05-09T08:02:47.224Z,72.04
2023-05-09T08:05:36.568Z,72.25
2023-05-09T08:08:25.913Z,71.05
2023-05-09T08:11:15.312Z,70.81
2023-05-09T08:14:04.814Z,69.82
2023-05-09T08:16:54.409Z,69.13
2023-05-09T08:19:45.154Z,68.14
2023-05-09T08:22:34.635Z,67.69
2023-05-09T08:25:23.929Z,67.81
2023-05-09T08:28:13.434Z,66.05
2023-05-09T08:31:02.806Z,64.69
2023-05-09T08:33:52.121Z,64.27
2023-05-09T08:36:45.612Z,64.66
2023-05-09T08:39:35.692Z,64.57
2023-05-09T08:42:26.653Z,64.34
2023-05-09T08:45:17.659Z,62.71
2023-05-09T08:48:08.302Z,61.65
2023-05-09T08:50:58.342Z,61.57
2023-05-09T08:53:49.662Z,61.82
2023-05-09T08:56:38.996Z,62.61
2023-05-09T08:59:29.407Z,63.03
2023-05-09T09:02:18.801Z,62.87
2023-05-09T09:05:19.545Z,61.99
2023-05-09T09:08:19.272Z,60.94
2023-05-09T09:11:14.580Z,61.04
2023-05-09T09:14:08.087Z,60.34
2023-05-09T09:16:59.771Z,59.42
2023-05-09T09:19:53.777Z,60.62
2023-05-09T09:22:45.681Z,59.73
2023-05-09T09:25:34.840Z,60.17
2023-05-09T09:28:25.723Z,59.13
2023-05-09T09:31:22.487Z,54.88
2023-05-09T09:34:11.759Z,55.21
2023-05-09T09:37:01.246Z,54.05
2023-05-09T09:39:59.381Z,54.60
2023-05-09T09:42:49.531Z,52.80
2023-05-09T09:45:43.897Z,52.73
2023-05-09T09:48:34.892Z,52.52
2023-05-09T09:51:24.092Z,50.07
2023-05-09T09:54:14.618Z,48.61
2023-05-09T09:57:04.092Z,47.76
2023-05-09T10:00:01.248Z,46.72
2023-05-09T10:02:54.085Z,46.12
2023-05-09T10:05:43.124Z,43.45
2023-05-09T10:08:32.480Z,43.72
2023-05-09T10:11:22.378Z,43.99
2023-05-09T10:14:11.790Z,43.53
2023-05-09T10:17:04.266Z,43.13
2023-05-09T10:19:56.600Z,43.32
2023-05-09T10:22:46.965Z,43.98
2023-05-09T10:25:42.173Z,44.06
2023-05-09T10:28:37.182Z,44.14
2023-05-09T10:31:29.597Z,43.58
2023-05-09T10:34:21.090Z,43.56
2023-05-09T10:37:12.735Z,43.94
2023-05-09T10:40:05.177Z,44.25
2023-05-09T10:42:54.457Z,41.46
2023-05-09T10:45:44.654Z,41.97
2023-05-09T10:48:34.675Z,41.44
2023-05-09T10:51:25.764Z,39.83
2023-05-09T10:54:31.058Z,39.66
2023-05-09T10:57:22.714Z,40.71
2023-05-09T11:00:14.156Z,40.94
2023-05-09T11:03:09.882Z,40.24
2023-05-09T11:06:00.210Z,40.25
2023-05-09T11:08:49.682Z,39.31
2023-05-09T11:11:53.962Z,40.11
2023-05-09T11:14:45.817Z,39.92
2023-05-09T11:17:39.304Z,37.50
2023-05-09T11:20:30.470Z,37.63
2023-05-09T11:23:21.685Z,37.28
2023-05-09T11:26:11.280Z,36.73
2023-05-09T11:29:02.971Z,34.71
2023-05-09T11:32:14.308Z,33.63
2023-05-09T11:35:12.278Z,34.31
2023-05-09T11:38:04.335Z,33.93
2023-05-09T11:40:54.984Z,34.00
2023-05-09T11:43:45.698Z,32.77
2023-05-09T11:46:36.418Z,33.55
2023-05-09T11:49:25.634Z,32.64
2023-05-09T11:52:14.954Z,34.25
2023-05-09T11:55:04.446Z,33.75
2023-05-09T11:57:55.677Z,34.03
2023-05-09T12:00:46.727Z,34.63
2023-05-09T12:03:37.452Z,34.56
2023-05-09T12:06:28.302Z,35.74
2023-05-09T12:09:20.081Z,36.03
2023-05-09T12:12:13.131Z,35.58
2023-05-09T12:15:05.806Z,36.24
2023-05-09T12:18:06.168Z,36.02
2023-05-09T12:20:57.007Z,36.54
2023-05-09T12:23:49.760Z,37.15
2023-05-09T12:26:41.317Z,37.87
2023-05-09T12:29:33.434Z,38.37
2023-05-09T12:32:22.978Z,38.50
2023-05-09T12:35:12.619Z,38.49
2023-05-09T12:38:03.714Z,39.74
2023-05-09T12:41:03.973Z,41.40
2023-05-09T12:43:53.521Z,41.65
2023-05-09T12:46:43.071Z,39.92
2023-05-09T12:49:33.447Z,40.29
2023-05-09T12:52:22.966Z,41.24
2023-05-09T12:55:15.990Z,42.17
2023-05-09T12:58:05.778Z,42.63
2023-05-09T13:00:56.700Z,42.77
2023-05-09T13:03:46.112Z,42.95
2023-05-09T13:06:36.333Z,43.46
2023-05-09T13:09:27.640Z,42.92
2023-05-09T13:12:20.795Z,40.92
2023-05-09T13:15:13.682Z,40.89
2023-05-09T13:18:03.156Z,41.66
2023-05-09T13:20:52.561Z,41.64
2023-05-09T13:23:42.328Z,41.41
2023-05-09T13:26:32.075Z,40.99
2023-05-09T13:29:22.721Z,40.83
2023-05-09T13:32:12.076Z,39.38
2023-05-09T13:35:01.369Z,38.97
2023-05-09T13:37:51.042Z,39.42
2023-05-09T13:40:40.610Z,39.58
2023-05-09T13:43:30.824Z,39.01
2023-05-09T13:46:21.435Z,38.62
2023-05-09T13:49:10.780Z,38.34
2023-05-09T13:52:00.128Z,37.76
2023-05-09T13:54:49.396Z,37.57
2023-05-09T13:57:38.718Z,38.21
2023-05-09T14:00:28.070Z,37.68
2023-05-09T14:03:18.709Z,36.74
2023-05-09T14:06:09.387Z,37.81
2023-05-09T14:08:58.833Z,38.19
2023-05-09T14:11:48.267Z,37.46
2023-05-09T14:14:37.698Z,38.25
2023-05-09T14:17:27.133Z,38.89
2023-05-09T14:20:17.980Z,40.61
2023-05-09T14:23:07.271Z,41.02
2023-05-09T14:25:56.554Z,40.93
2023-05-09T14:28:45.923Z,42.24
2023-05-09T14:31:35.362Z,45.85
2023-05-09T14:34:24.891Z,48.61
2023-05-09T14:37:15.802Z,51.13
2023-05-09T14:40:05.827Z,52.94
2023-05-09T14:42:55.194Z,55.48
2023-05-09T14:45:44.452Z,57.43
2023-05-09T14:48:34.619Z,58.99
2023-05-09T14:51:24.395Z,60.67
2023-05-09T14:54:15.822Z,61.71
2023-05-09T14:57:07.527Z,62.74
2023-05-09T15:00:03.142Z,61.94
2023-05-09T15:02:58.387Z,62.83
2023-05-09T15:05:47.717Z,61.73
2023-05-09T15:08:36.986Z,61.09
2023-05-09T15:11:28.740Z,61.54
2023-05-09T15:14:20.282Z,62.08
2023-05-09T15:17:09.619Z,62.83
2023-05-09T15:19:59.193Z,62.60
2023-05-09T15:22:49.881Z,62.60
2023-05-09T15:25:39.414Z,61.92
2023-05-09T15:28:30.432Z,59.03
2023-05-09T15:31:21.710Z,57.22
2023-05-09T15:34:11.072Z,55.67
2023-05-09T15:37:01.114Z,54.75
2023-05-09T15:39:50.351Z,53.71
2023-05-09T15:42:40.565Z,53.87
2023-05-09T15:45:31.366Z,53.11
2023-05-09T15:48:21.377Z,54.03
2023-05-09T15:51:10.705Z,54.12
2023-05-09T15:54:00.060Z,53.08
2023-05-09T15:56:49.588Z,52.50
2023-05-09T15:59:39.051Z,52.46
2023-05-09T16:02:30.047Z,52.35
2023-05-09T16:05:19.772Z,51.10
2023-05-09T16:08:09.204Z,52.35
2023-05-09T16:11:00.930Z,50.92
2023-05-09T16:13:50.184Z,50.52
2023-05-09T16:16:39.889Z,50.08
2023-05-09T16:19:31.244Z,49.56
2023-05-09T16:22:21.069Z,49.38
2023-05-09T16:25:12.516Z,50.32
2023-05-09T16:28:01.737Z,50.18
2023-05-09T16:30:51.543Z,51.10
2023-05-09T16:33:40.882Z,52.12
2023-05-09T16:36:32.903Z,52.56
2023-05-09T16:39:23.839Z,55.71
2023-05-09T16:42:13.141Z,57.94
2023-05-09T16:45:02.460Z,60.81
2023-05-09T16:47:53.422Z,62.13
2023-05-09T16:50:44.332Z,63.28
2023-05-09T16:53:34.963Z,63.80
2023-05-09T16:56:24.239Z,65.22
2023-05-09T16:59:13.576Z,65.77
2023-05-09T17:02:04.583Z,66.72
2023-05-09T17:04:54.047Z,67.60
2023-05-09T17:07:49.632Z,68.39
2023-05-09T17:10:42.088Z,68.68
2023-05-09T17:13:31.563Z,67.93
2023-05-09T17:16:20.934Z,67.45
2023-05-09T17:19:10.284Z,66.95
2023-05-09T17:22:04.274Z,66.73
2023-05-09T17:24:53.712Z,66.33
2023-05-09T17:27:44.340Z,66.46
2023-05-09T17:30:33.837Z,66.09
2023-05-09T17:33:23.514Z,66.17
2023-05-09T17:36:12.936Z,66.10
2023-05-09T17:39:02.461Z,66.21
2023-05-09T17:41:52.162Z,66.20
2023-05-09T17:44:44.378Z,66.38
2023-05-09T17:47:33.981Z,66.27
2023-05-09T17:50:23.372Z,65.95
2023-05-09T17:53:13.151Z,66.69
2023-05-09T17:56:02.484Z,65.71
2023-05-09T17:58:53.191Z,65.24
2023-05-09T18:01:44.006Z,63.36
2023-05-09T18:04:34.492Z,62.20
2023-05-09T18:07:24.493Z,61.27
2023-05-09T18:10:14.096Z,60.97
2023-05-09T18:13:03.501Z,59.66
2023-05-09T18:15:55.296Z,59.15
2023-05-09T18:18:46.042Z,59.41
2023-05-09T18:21:35.570Z,58.76
2023-05-09T18:24:24.808Z,57.27
2023-05-09T18:27:14.106Z,55.79
2023-05-09T18:30:03.802Z,55.84
2023-05-09T18:32:53.569Z,55.22
2023-05-09T18:35:44.360Z,54.62
2023-05-09T18:38:38.243Z,55.07
2023-05-09T18:41:29.188Z,54.51
2023-05-09T18:44:18.557Z,53.64
2023-05-09T18:47:07.930Z,54.80
2023-05-09T18:49:57.351Z,55.22
2023-05-09T18:52:48.092Z,54.88
2023-05-09T18:55:37.297Z,55.06
2023-05-09T18:58:26.686Z,54.80
2023-05-09T19:01:15.955Z,55.22
2023-05-09T19:04:05.675Z,54.88
2023-05-09T19:06:54.978Z,55.12
2023-05-09T19:09:45.869Z,54.73
2023-05-09T19:12:35.559Z,55.02
2023-05-09T19:15:24.955Z,55.19
2023-05-09T19:18:14.348Z,55.41
2023-05-09T19:21:04.221Z,55.52
2023-05-09T19:23:53.498Z,55.49
2023-05-09T19:26:44.137Z,55.17
2023-05-09T19:29:33.467Z,55.58
2023-05-09T19:32:22.938Z,55.50
2023-05-09T19:35:12.724Z,55.29
2023-05-09T19:38:01.960Z,55.51
2023-05-09T19:40:51.281Z,55.49
2023-05-09T19:43:42.207Z,55.81
2023-05-09T19:46:31.591Z,56.03
2023-05-09T19:49:20.965Z,56.40
2023-05-09T19:52:10.328Z,56.62
2023-05-09T19:54:59.710Z,57.09
2023-05-09T19:57:48.942Z,56.99
2023-05-09T20:00:39.588Z,56.96
2023-05-09T20:03:29.206Z,57.45
2023-05-09T20:06:20.205Z,58.04
2023-05-09T20:09:09.589Z,58.09
2023-05-09T20:11:59.043Z,58.36
2023-05-09T20:14:48.275Z,58.56
2023-05-09T20:17:38.977Z,58.17
2023-05-09T20:20:28.506Z,58.50
2023-05-09T20:23:17.883Z,58.33
2023-05-09T20:26:07.335Z,58.73
2023-05-09T20:29:01.476Z,58.29
2023-05-09T20:31:50.990Z,58.48
2023-05-09T20:34:41.695Z,58.63
2023-05-09T20:37:30.959Z,58.68
2023-05-09T20:40:20.453Z,58.49
2023-05-09T20:43:09.978Z,58.46
2023-05-09T20:45:59.241Z,58.75
2023-05-09T20:48:48.634Z,58.65
2023-05-09T20:51:39.905Z,58.72
2023-05-09T20:54:29.333Z,58.68
2023-05-09T20:57:18.912Z,58.24
2023-05-09T21:00:09.999Z,58.44
2023-05-09T21:02:59.360Z,58.65
2023-05-09T21:05:48.766Z,58.52
2023-05-09T21:08:40.633Z,58.91
2023-05-09T21:11:30.000Z,58.99
2023-05-09T21:14:19.415Z,59.21
2023-05-09T21:17:08.808Z,58.94
2023-05-09T21:19:58.130Z,59.21
2023-05-09T21:22:47.335Z,59.57
2023-05-09T21:25:37.983Z,59.92
2023-05-09T21:28:27.300Z,60.16
2023-05-09T21:31:16.618Z,60.89
2023-05-09T21:34:09.944Z,60.95
2023-05-09T21:36:59.583Z,60.81
2023-05-09T21:39:48.847Z,61.16
2023-05-09T21:42:40.384Z,61.53
2023-05-09T21:45:29.666Z,61.55
2023-05-09T21:48:18.935Z,61.76
2023-05-09T21:51:09.455Z,61.86
2023-05-09T21:53:58.628Z,61.99
2023-05-09T21:56:48.109Z,61.81
2023-05-09T21:59:38.931Z,62.02
2023-05-09T22:02:28.697Z,62.33
2023-05-09T22:05:18.173Z,62.48
2023-05-09T22:08:07.499Z,62.88
2023-05-09T22:10:57.300Z,62.79
2023-05-09T22:13:46.505Z,62.75
2023-05-09T22:16:37.416Z,63.31
2023-05-09T22:19:26.874Z,63.27
2023-05-09T22:22:16.198Z,63.75
2023-05-09T22:25:06.264Z,63.96
2023-05-09T22:27:56.231Z,64.25
2023-05-09T22:30:45.511Z,64.43
2023-05-09T22:33:36.201Z,64.39
2023-05-09T22:36:26.812Z,64.18
2023-05-09T22:39:16.665Z,64.79
2023-05-09T22:42:06.752Z,64.56
2023-05-09T22:44:56.108Z,65.60
2023-05-09T22:47:45.417Z,65.28
2023-05-09T22:50:36.279Z,65.64
2023-05-09T22:53:26.198Z,66.39
2023-05-09T22:56:15.554Z,66.64
2023-05-09T22:59:04.799Z,66.85
2023-05-09T23:01:54.225Z,66.99
2023-05-09T23:04:43.446Z,67.69
2023-05-09T23:07:34.132Z,68.33
2023-05-09T23:10:23.603Z,68.00
2023-05-09T23:13:12.851Z,69.44
2023-05-09T23:16:02.833Z,70.09
2023-05-09T23:18:52.135Z,71.09
2023-05-09T23:21:41.536Z,70.25
2023-05-09T23:24:32.169Z,71.07
2023-05-09T23:27:21.789Z,71.71
2023-05-09T23:30:12.329Z,72.03
2023-05-09T23:33:04.365Z,71.85
2023-05-09T23:35:53.629Z,73.12
2023-05-09T23:38:42.913Z,71.68
2023-05-09T23:41:33.586Z,72.43
2023-05-09T23:44:22.877Z,72.51
2023-05-09T23:47:12.237Z,73.20
2023-05-09T23:50:01.565Z,73.57
2023-05-09T23:52:51.234Z,73.28
2023-05-09T23:55:40.603Z,72.83
2023-05-09T23:58:31.204Z,73.55
